Time;durP1;ratioP1;P1;durP2;ratioP2;P2;SDS_P1;SDS_P2;PMS_P1;PMS_P2;Temp;Humidity;BMP_temperature;BMP_pressure;BME280_temperature;BME280_humidity;BME280_pressure;Samples;Min_cycle;Max_cycle;Signal;HPM_P1;HPM_P2
2023/02/21 02:19:37;;;;;;;2.33;0.80;;;6.90;54.80;;;;;;2542728;53;20987;-84
2023/02/21 02:22:35;;;;;;;1.95;0.80;;;6.90;55.10;;;;;;2549843;53;20939;-83
2023/02/21 02:28:28;;;;;;;2.20;0.80;;;6.90;54.90;;;;;;2549411;53;20955;-84
2023/02/21 02:31:16;;;;;;;3.35;0.90;;;6.80;54.80;;;;;;2547936;53;21038;-83
2023/02/21 02:36:50;;;;;;;2.20;1.00;;;6.80;54.90;;;;;;2547379;53;21540;-83
2023/02/21 02:41:27;;;;;;;3.78;1.08;;;6.70;54.90;;;;;;2547243;53;20986;-83
2023/02/21 02:44:05;;;;;;;2.15;0.98;;;6.70;55.00;;;;;;2543156;53;20963;-83
2023/02/21 02:46:32;;;;;;;2.05;0.80;;;6.60;54.90;;;;;;2539035;54;20932;-83
2023/02/21 02:49:32;;;;;;;2.58;1.10;;;6.60;54.90;;;;;;2539130;54;21032;-83
2023/02/21 02:52:03;;;;;;;2.40;1.20;;;6.60;55.00;;;;;;2542331;53;21144;-83
2023/02/21 02:54:31;;;;;;;2.47;0.93;;;6.60;55.00;;;;;;2310355;53;20949;-83
2023/02/21 02:56:58;;;;;;;2.03;0.90;;;6.50;55.00;;;;;;2546650;53;20923;-84
2023/02/21 02:59:25;;;;;;;2.03;0.90;;;6.50;55.00;;;;;;2541996;53;20984;-84
2023/02/21 03:09:37;;;;;;;2.85;1.05;;;6.50;55.10;;;;;;2542120;53;20947;-84
2023/02/21 03:15:46;;;;;;;1.98;0.80;;;6.40;55.00;;;;;;2547152;53;20923;-83
2023/02/21 03:18:48;;;;;;;2.60;1.10;;;6.40;54.90;;;;;;2548138;53;20995;-83
2023/02/21 03:21:18;;;;;;;2.00;0.80;;;6.30;54.90;;;;;;2546289;53;21021;-83
2023/02/21 03:23:50;;;;;;;2.80;1.20;;;6.30;55.00;;;;;;2539405;53;20943;-84
2023/02/21 03:26:19;;;;;;;2.90;0.80;;;6.20;55.00;;;;;;2547839;53;20943;-84
2023/02/21 03:28:55;;;;;;;3.47;1.10;;;6.20;55.10;;;;;;2544167;53;20946;-83
2023/02/21 03:31:23;;;;;;;3.28;1.30;;;6.20;55.10;;;;;;2547890;53;20998;-84
2023/02/21 03:33:52;;;;;;;2.85;1.10;;;6.10;55.10;;;;;;2312403;53;20922;-83
2023/02/21 03:36:19;;;;;;;2.33;1.00;;;6.10;55.10;;;;;;2548500;53;21002;-82
2023/02/21 03:38:51;;;;;;;2.30;1.00;;;6.10;55.20;;;;;;2548375;53;21275;-83
2023/02/21 03:41:24;;;;;;;3.42;1.05;;;6.10;55.20;;;;;;2311382;53;20951;-83
2023/02/21 03:43:51;;;;;;;3.42;1.20;;;6.10;55.20;;;;;;2513348;54;20931;-83
2023/02/21 03:46:21;;;;;;;2.20;1.00;;;6.00;55.20;;;;;;2549128;53;20998;-83
2023/02/21 03:48:49;;;;;;;3.42;1.45;;;6.00;55.20;;;;;;2310775;53;21206;-83
2023/02/21 03:51:15;;;;;;;3.30;1.20;;;6.00;55.20;;;;;;2311042;53;20943;-83
2023/02/21 03:53:51;;;;;;;3.85;1.37;;;6.00;55.30;;;;;;2548435;53;22088;-83
2023/02/21 03:56:18;;;;;;;3.53;1.40;;;6.00;55.30;;;;;;2549210;53;20999;-83
2023/02/21 03:58:54;;;;;;;2.90;1.10;;;6.00;55.30;;;;;;2549130;53;21042;-82
2023/02/21 04:01:22;;;;;;;2.20;1.05;;;6.00;55.30;;;;;;2512584;54;20979;-83
2023/02/21 04:03:49;;;;;;;3.50;1.50;;;6.00;55.30;;;;;;2548891;53;21204;-83
2023/02/21 04:06:16;;;;;;;4.60;1.60;;;6.00;55.40;;;;;;2540205;53;20980;-83
2023/02/21 04:08:45;;;;;;;3.12;1.23;;;5.90;55.40;;;;;;2544460;53;22129;-84
2023/02/21 04:11:19;;;;;;;3.08;1.20;;;5.90;55.40;;;;;;2543520;53;20919;-83
2023/02/21 04:13:45;;;;;;;3.12;1.52;;;5.90;55.50;;;;;;2548449;53;20939;-83
2023/02/21 04:16:12;;;;;;;2.72;1.23;;;5.70;55.30;;;;;;2548691;53;21009;-83
2023/02/21 04:18:42;;;;;;;2.85;1.30;;;5.90;55.50;;;;;;2308075;53;21000;-83
2023/02/21 04:21:10;;;;;;;3.55;1.37;;;5.90;55.50;;;;;;2536461;53;20991;-84
2023/02/21 04:23:44;;;;;;;2.85;1.10;;;5.90;55.50;;;;;;2535911;54;20944;-84
2023/02/21 04:26:11;;;;;;;3.72;1.58;;;5.80;55.50;;;;;;2545557;53;20993;-84
2023/02/21 04:28:37;;;;;;;3.85;1.42;;;5.80;55.50;;;;;;2549852;53;20912;-83
2023/02/21 04:31:06;;;;;;;2.95;1.40;;;5.80;55.50;;;;;;2311532;53;20935;-83
2023/02/21 04:33:33;;;;;;;3.78;1.48;;;5.60;55.30;;;;;;2549728;53;21432;-84
2023/02/21 04:35:59;;;;;;;3.30;1.30;;;5.80;55.60;;;;;;2550159;53;20923;-83
2023/02/21 04:38:31;;;;;;;2.87;1.23;;;5.80;55.60;;;;;;2543025;53;20960;-84
2023/02/21 04:40:58;;;;;;;2.80;1.15;;;5.80;55.70;;;;;;2547561;53;20975;-83
2023/02/21 04:43:30;;;;;;;3.40;1.60;;;5.80;55.60;;;;;;2312501;53;21046;-82
2023/02/21 04:45:57;;;;;;;4.93;1.33;;;5.80;55.60;;;;;;2312346;53;20970;-83
2023/02/21 04:48:24;;;;;;;2.42;1.27;;;5.80;55.70;;;;;;2550467;54;21104;-84
2023/02/21 04:50:51;;;;;;;2.90;1.20;;;5.80;55.60;;;;;;2312379;53;20884;-83
2023/02/21 04:53:23;;;;;;;2.85;1.08;;;5.70;56.10;;;;;;2550563;53;20946;-84
2023/02/21 04:55:53;;;;;;;5.05;2.37;;;5.70;55.60;;;;;;2514186;54;20931;-83
2023/02/21 04:58:20;;;;;;;6.22;2.78;;;5.70;55.50;;;;;;2550255;53;20919;-84
2023/02/21 05:00:47;;;;;;;4.45;2.10;;;5.70;55.60;;;;;;2548772;53;20927;-84
2023/02/21 05:03:13;;;;;;;5.68;2.15;;;5.70;55.60;;;;;;2550252;53;20939;-84
2023/02/21 05:05:40;;;;;;;4.87;2.20;;;5.70;55.60;;;;;;2550585;53;21760;-83
2023/02/21 05:08:06;;;;;;;4.30;2.08;;;5.70;55.60;;;;;;2550015;53;21023;-83
2023/02/21 05:10:40;;;;;;;4.55;1.90;;;5.60;55.60;;;;;;2539425;54;20948;-84
2023/02/21 05:13:12;;;;;;;4.97;2.00;;;5.60;55.60;;;;;;2550309;53;20935;-83
2023/02/21 05:15:40;;;;;;;3.58;1.73;;;5.60;55.60;;;;;;2549776;53;20962;-86
2023/02/21 05:18:06;;;;;;;4.18;2.00;;;5.60;55.70;;;;;;2550732;53;20947;-83
2023/02/21 05:20:33;;;;;;;4.03;1.73;;;5.60;55.70;;;;;;2550737;53;20935;-83
2023/02/21 05:23:00;;;;;;;4.07;1.50;;;5.60;55.70;;;;;;2540006;54;20907;-83
2023/02/21 05:25:38;;;;;;;4.25;1.75;;;5.60;55.70;;;;;;2313128;53;20974;-83
2023/02/21 05:28:08;;;;;;;5.57;1.90;;;5.50;55.60;;;;;;2550772;53;20911;-84
2023/02/21 05:30:35;;;;;;;3.50;1.90;;;5.50;55.60;;;;;;2549089;53;20995;-84
2023/02/21 05:33:01;;;;;;;3.55;1.70;;;5.50;55.70;;;;;;2312938;53;20994;-83
2023/02/21 05:35:29;;;;;;;2.95;1.70;;;5.50;55.70;;;;;;2549673;53;20935;-84
2023/02/21 05:37:56;;;;;;;4.20;1.90;;;5.50;55.60;;;;;;2549435;53;20880;-83
2023/02/21 05:40:25;;;;;;;5.40;2.20;;;5.50;55.70;;;;;;2549216;53;20931;-84
2023/02/21 05:42:54;;;;;;;4.30;2.10;;;5.40;55.60;;;;;;2541122;53;20975;-83
2023/02/21 05:45:23;;;;;;;5.85;2.22;;;5.40;55.70;;;;;;2542421;54;21078;-83
2023/02/21 05:47:55;;;;;;;3.65;1.95;;;5.30;55.60;;;;;;2547184;53;20988;-84
2023/02/21 05:50:25;;;;;;;6.47;2.08;;;5.40;55.70;;;;;;2308055;53;20946;-83
2023/02/21 05:52:55;;;;;;;4.50;2.00;;;5.40;55.70;;;;;;2545710;53;20921;-83
2023/02/21 05:55:37;;;;;;;4.05;1.80;;;5.40;55.70;;;;;;2545499;53;20926;-83
2023/02/21 05:58:21;;;;;;;4.35;1.87;;;5.40;55.70;;;;;;2551040;53;21067;-82
2023/02/21 06:01:27;;;;;;;5.12;2.35;;;5.40;55.80;;;;;;2508100;54;21031;-82
2023/02/21 06:04:12;;;;;;;4.72;2.05;;;5.30;55.70;;;;;;2541398;54;20937;-82
2023/02/21 06:06:47;;;;;;;4.80;2.45;;;5.30;55.80;;;;;;2545698;53;21755;-82
2023/02/21 06:09:33;;;;;;;4.57;2.17;;;5.30;55.80;;;;;;2313536;53;21119;-81
2023/02/21 06:12:14;;;;;;;4.90;2.30;;;5.30;55.90;;;;;;2540906;53;21065;-82
2023/02/21 06:14:47;;;;;;;4.62;2.05;;;5.30;55.90;;;;;;2547639;53;21058;-82
2023/02/21 06:17:20;;;;;;;5.93;2.20;;;5.30;55.90;;;;;;2547251;53;20967;-83
2023/02/21 06:19:57;;;;;;;5.85;3.22;;;5.10;55.80;;;;;;2539175;53;21082;-82
2023/02/21 06:22:29;;;;;;;7.18;3.50;;;5.20;56.00;;;;;;2546906;53;20975;-82
2023/02/21 06:24:59;;;;;;;4.45;2.20;;;5.20;56.00;;;;;;2547987;53;21038;-83
2023/02/21 06:27:36;;;;;;;6.53;2.87;;;5.30;56.10;;;;;;2538619;54;21002;-82
2023/02/21 06:30:12;;;;;;;5.70;2.95;;;5.20;56.20;;;;;;2542778;53;20976;-82
2023/02/21 06:32:48;;;;;;;5.95;2.67;;;5.20;56.20;;;;;;2546267;53;20991;-82
2023/02/21 06:35:15;;;;;;;6.22;3.00;;;5.20;56.10;;;;;;2540532;54;20995;-83
2023/02/21 06:37:54;;;;;;;6.18;2.83;;;5.40;56.30;;;;;;2548918;53;21046;-82
2023/02/21 06:40:27;;;;;;;6.18;2.75;;;5.20;56.10;;;;;;2538024;53;20919;-81
2023/02/21 06:42:57;;;;;;;6.45;2.80;;;5.20;56.20;;;;;;2548960;53;20932;-83
2023/02/21 06:45:25;;;;;;;6.25;2.55;;;5.40;56.30;;;;;;2550535;53;20951;-83
2023/02/21 06:48:00;;;;;;;5.70;3.40;;;5.20;56.10;;;;;;2313748;53;21084;-82
2023/02/21 06:50:30;;;;;;;6.32;2.80;;;5.20;56.30;;;;;;2310961;54;21902;-82
2023/02/21 06:53:09;;;;;;;7.53;3.55;;;5.20;56.20;;;;;;2550017;53;20923;-82
2023/02/21 06:55:39;;;;;;;6.18;2.70;;;5.30;56.40;;;;;;2546371;53;21036;-82
2023/02/21 06:58:15;;;;;;;5.70;2.75;;;5.30;56.40;;;;;;2535291;53;21274;-82
2023/02/21 07:00:42;;;;;;;5.28;2.83;;;5.30;56.30;;;;;;2544841;53;20944;-82
2023/02/21 07:03:09;;;;;;;7.05;3.10;;;5.30;56.40;;;;;;2544168;54;20988;-82
2023/02/21 07:05:42;;;;;;;4.68;2.30;;;5.30;56.40;;;;;;2543806;53;20998;-82
2023/02/21 07:08:15;;;;;;;5.40;2.55;;;5.30;56.50;;;;;;2540610;54;20963;-82
2023/02/21 07:10:43;;;;;;;6.10;2.60;;;5.30;56.40;;;;;;2549432;53;20962;-83
2023/02/21 07:13:13;;;;;;;5.20;2.20;;;5.30;56.50;;;;;;2549917;53;20963;-83
2023/02/21 07:15:49;;;;;;;4.78;1.73;;;5.30;56.50;;;;;;2549953;53;20960;-82
2023/02/21 07:18:16;;;;;;;4.28;2.12;;;5.30;56.40;;;;;;2550726;53;20908;-83
2023/02/21 07:20:43;;;;;;;3.90;2.42;;;5.30;56.50;;;;;;2546757;53;21036;-83
2023/02/21 07:23:15;;;;;;;4.03;2.20;;;5.30;56.60;;;;;;2308322;54;22017;-83
2023/02/21 07:25:45;;;;;;;5.85;2.80;;;5.30;56.60;;;;;;2543354;54;21030;-82
2023/02/21 07:28:11;;;;;;;4.70;2.55;;;5.30;56.70;;;;;;2312938;53;20995;-83
2023/02/21 07:30:38;;;;;;;5.65;2.92;;;5.30;56.70;;;;;;2549455;53;20966;-83
2023/02/21 07:33:08;;;;;;;6.18;3.00;;;5.40;56.90;;;;;;2543220;53;20973;-82
2023/02/21 07:35:40;;;;;;;5.60;2.92;;;5.40;56.90;;;;;;2514547;54;20943;-83
2023/02/21 07:38:09;;;;;;;5.05;3.28;;;5.40;56.90;;;;;;2549364;53;21431;-82
2023/02/21 07:40:37;;;;;;;5.95;3.17;;;5.40;56.90;;;;;;2550456;53;20943;-83
2023/02/21 07:43:03;;;;;;;5.12;2.97;;;5.30;56.90;;;;;;2549553;53;20939;-82
2023/02/21 07:45:38;;;;;;;5.70;3.12;;;5.50;57.00;;;;;;2514018;54;20936;-82
2023/02/21 07:48:05;;;;;;;6.85;3.53;;;5.50;57.20;;;;;;2549548;53;21003;-82
2023/02/21 07:50:31;;;;;;;6.22;3.72;;;5.50;57.10;;;;;;2548716;53;20983;-83
2023/02/21 07:52:59;;;;;;;8.80;3.90;;;5.60;57.50;;;;;;2549490;53;20930;-83
2023/02/21 07:55:26;;;;;;;7.65;4.20;;;5.60;57.60;;;;;;2549560;53;20955;-83
2023/02/21 07:57:58;;;;;;;8.65;4.10;;;5.70;57.80;;;;;;2549280;53;20991;-82
2023/02/21 08:00:29;;;;;;;8.88;5.07;;;5.70;57.80;;;;;;2549617;53;20974;-82
2023/02/21 08:02:56;;;;;;;8.63;4.85;;;5.70;57.90;;;;;;2313667;53;20940;-82
2023/02/21 08:05:25;;;;;;;8.57;4.95;;;5.80;57.90;;;;;;2550047;53;20963;-83
2023/02/21 08:07:52;;;;;;;9.02;5.15;;;5.90;58.00;;;;;;2549644;53;20975;-83
2023/02/21 08:10:24;;;;;;;6.78;4.60;;;5.90;58.00;;;;;;2549761;53;20911;-82
2023/02/21 08:12:50;;;;;;;7.20;4.47;;;6.00;58.20;;;;;;2549494;53;20943;-81
2023/02/21 08:15:17;;;;;;;9.77;4.85;;;6.10;58.20;;;;;;2549598;53;20991;-83
2023/02/21 08:17:45;;;;;;;10.23;5.37;;;6.10;58.10;;;;;;2548581;53;20991;-83
2023/02/21 08:20:11;;;;;;;6.78;4.35;;;6.20;58.30;;;;;;2548898;53;21561;-83
2023/02/21 08:22:37;;;;;;;8.90;3.92;;;6.20;58.30;;;;;;2550553;53;20980;-83
2023/02/21 08:25:04;;;;;;;5.68;3.22;;;6.30;58.50;;;;;;2548736;53;20987;-83
2023/02/21 08:27:30;;;;;;;6.10;3.00;;;6.40;58.60;;;;;;2547555;53;20927;-83
2023/02/21 08:29:57;;;;;;;4.70;2.58;;;6.50;58.60;;;;;;2548169;53;20869;-83
2023/02/21 08:32:25;;;;;;;5.82;2.92;;;6.70;58.80;;;;;;2548976;53;20943;-82
2023/02/21 08:34:54;;;;;;;5.37;2.65;;;6.60;59.00;;;;;;2548195;53;21006;-81
2023/02/21 08:37:21;;;;;;;4.60;2.25;;;6.70;59.00;;;;;;2548761;53;21002;-82
2023/02/21 08:39:50;;;;;;;6.07;3.20;;;6.80;59.20;;;;;;2545944;53;20979;-83
2023/02/21 08:42:29;;;;;;;6.80;2.65;;;6.90;59.30;;;;;;2547932;53;20943;-83
2023/02/21 08:44:56;;;;;;;5.97;2.80;;;7.00;59.50;;;;;;2545650;53;21609;-82
2023/02/21 08:47:23;;;;;;;5.47;3.42;;;7.10;59.50;;;;;;2547545;53;20935;-83
2023/02/21 08:49:52;;;;;;;6.00;3.30;;;7.20;59.50;;;;;;2546559;53;20943;-83
2023/02/21 08:52:20;;;;;;;5.10;2.58;;;7.30;59.70;;;;;;2548927;53;20923;-83
2023/02/21 08:54:47;;;;;;;5.20;2.50;;;7.40;59.80;;;;;;2547775;53;21566;-83
2023/02/21 08:57:13;;;;;;;6.72;3.00;;;7.50;59.90;;;;;;2547264;53;20947;-83
2023/02/21 08:59:41;;;;;;;6.87;3.15;;;7.60;60.00;;;;;;2546850;53;20971;-83
2023/02/21 09:02:18;;;;;;;6.60;2.80;;;7.70;60.20;;;;;;2547802;53;20983;-83
2023/02/21 09:04:48;;;;;;;7.75;2.95;;;7.90;60.60;;;;;;2547392;53;21010;-82
2023/02/21 09:07:15;;;;;;;5.62;3.25;;;7.90;60.40;;;;;;2550666;53;20942;-82
2023/02/21 09:09:41;;;;;;;5.25;3.20;;;8.10;60.60;;;;;;2311918;53;20911;-82
2023/02/21 09:12:08;;;;;;;5.32;3.33;;;8.30;60.80;;;;;;2549269;53;20915;-83
2023/02/21 09:14:35;;;;;;;6.45;3.60;;;8.50;61.20;;;;;;2549833;53;20999;-84
2023/02/21 09:17:02;;;;;;;5.18;2.70;;;8.50;61.30;;;;;;2548643;53;20966;-84
2023/02/21 09:19:28;;;;;;;4.75;2.70;;;8.70;61.60;;;;;;2549502;53;20912;-83
2023/02/21 09:21:55;;;;;;;4.97;2.85;;;8.90;61.80;;;;;;2548910;53;20935;-82
2023/02/21 09:24:25;;;;;;;5.05;2.90;;;9.00;61.80;;;;;;2312436;53;20946;-83
2023/02/21 09:26:53;;;;;;;4.50;2.40;;;9.20;62.00;;;;;;2549121;53;21818;-83
2023/02/21 09:29:20;;;;;;;5.28;2.78;;;9.40;62.10;;;;;;2549656;53;20987;-84
2023/02/21 09:31:46;;;;;;;6.45;2.70;;;9.60;62.30;;;;;;2548312;53;20955;-83
2023/02/21 09:34:13;;;;;;;5.97;2.65;;;9.80;62.40;;;;;;2549685;53;21821;-84
2023/02/21 09:36:39;;;;;;;5.37;2.70;;;9.90;62.70;;;;;;2549237;53;20980;-83
2023/02/21 09:39:05;;;;;;;4.85;2.70;;;10.20;61.80;;;;;;2549254;53;21218;-84
2023/02/21 09:41:33;;;;;;;4.68;2.75;;;10.30;61.70;;;;;;2311681;53;21594;-83
2023/02/21 09:43:59;;;;;;;6.90;3.20;;;10.50;62.00;;;;;;2548609;53;21090;-84
2023/02/21 09:46:45;;;;;;;5.78;3.25;;;10.80;62.70;;;;;;2547218;53;20951;-83
2023/02/21 09:49:20;;;;;;;5.32;3.20;;;11.10;63.80;;;;;;2547068;53;20993;-83
2023/02/21 09:51:47;;;;;;;5.18;3.08;;;11.30;63.60;;;;;;2309105;53;20939;-84
2023/02/21 09:54:27;;;;;;;6.10;3.45;;;11.60;63.80;;;;;;2308810;53;21230;-83
2023/02/21 09:56:53;;;;;;;6.25;3.05;;;11.80;64.10;;;;;;2546478;53;20927;-83
2023/02/21 09:59:19;;;;;;;4.57;2.62;;;12.10;64.10;;;;;;2546978;53;20922;-83
2023/02/21 10:02:30;;;;;;;6.30;3.28;;;12.40;63.80;;;;;;2308373;53;20991;-83
2023/02/21 10:05:26;;;;;;;5.82;2.97;;;12.70;63.80;;;;;;2546328;53;20970;-83
2023/02/21 10:08:17;;;;;;;5.03;2.40;;;13.00;63.90;;;;;;2546540;53;20998;-84
2023/02/21 10:10:57;;;;;;;4.10;2.20;;;13.30;63.30;;;;;;2547173;53;20931;-83
2023/02/21 10:17:52;;;;;;;5.47;2.65;;;13.50;62.90;;;;;;2310558;53;20979;-83
2023/02/21 10:21:03;;;;;;;4.07;2.10;;;13.80;62.00;;;;;;2310719;53;21012;-82
2023/02/21 10:23:42;;;;;;;5.90;2.60;;;14.20;61.80;;;;;;2547515;53;22355;-83
2023/02/21 10:26:10;;;;;;;4.47;2.30;;;14.40;61.40;;;;;;2313068;53;20999;-84
2023/02/21 10:28:36;;;;;;;4.45;2.15;;;14.60;61.50;;;;;;2310816;53;20935;-83
2023/02/21 10:31:16;;;;;;;4.15;2.30;;;14.70;61.30;;;;;;2309960;53;20931;-82
2023/02/21 10:33:43;;;;;;;4.53;2.10;;;14.90;61.00;;;;;;2547119;53;21423;-83
2023/02/21 10:36:20;;;;;;;4.95;2.20;;;15.00;60.80;;;;;;2547270;53;20927;-84
2023/02/21 10:38:54;;;;;;;4.80;2.55;;;15.10;60.70;;;;;;2310485;53;21030;-83
2023/02/21 10:41:21;;;;;;;4.43;2.62;;;15.30;60.10;;;;;;2547171;53;20954;-83
2023/02/21 10:43:49;;;;;;;5.18;2.22;;;15.30;60.20;;;;;;2546911;53;20998;-82
2023/02/21 10:46:24;;;;;;;5.25;2.60;;;15.50;60.00;;;;;;2309985;53;20950;-82
2023/02/21 10:48:52;;;;;;;4.82;2.10;;;15.60;59.70;;;;;;2547014;53;21900;-83
2023/02/21 10:51:33;;;;;;;6.22;2.33;;;15.70;59.80;;;;;;2546825;53;20939;-84
2023/02/21 10:54:22;;;;;;;5.25;2.42;;;15.80;59.00;;;;;;2546669;53;21499;-83
2023/02/21 10:56:49;;;;;;;4.78;2.33;;;15.90;58.70;;;;;;2546846;53;21507;-83
2023/02/21 10:59:23;;;;;;;4.55;2.47;;;16.00;59.30;;;;;;2310332;53;20975;-83
2023/02/21 11:01:50;;;;;;;4.62;2.30;;;16.20;59.20;;;;;;2546323;53;20939;-83
2023/02/21 11:04:30;;;;;;;5.07;2.87;;;16.30;59.40;;;;;;2547480;53;20931;-81
2023/02/21 11:07:17;;;;;;;5.43;2.37;;;16.40;59.10;;;;;;2547233;54;20958;-83
2023/02/21 11:09:44;;;;;;;4.37;2.03;;;16.50;58.60;;;;;;2547570;53;20927;-83
2023/02/21 11:12:24;;;;;;;4.40;2.30;;;16.70;59.20;;;;;;2547068;53;20935;-83
2023/02/21 11:15:15;;;;;;;4.12;2.22;;;16.80;58.30;;;;;;2310130;53;21015;-83
2023/02/21 11:17:42;;;;;;;3.62;2.15;;;17.00;58.00;;;;;;2311716;53;20899;-83
2023/02/21 11:20:18;;;;;;;4.60;2.50;;;17.10;58.70;;;;;;2549697;53;20926;-83
2023/02/21 11:22:48;;;;;;;4.72;1.92;;;17.20;57.90;;;;;;2312364;53;20915;-83
2023/02/21 11:25:28;;;;;;;4.40;2.40;;;17.30;58.30;;;;;;2308984;53;20980;-82
2023/02/21 11:29:47;;;;;;;4.78;2.10;;;17.40;58.10;;;;;;2549164;53;21026;-82
2023/02/21 11:32:22;;;;;;;4.18;2.22;;;17.60;57.30;;;;;;2309920;53;21006;-83
2023/02/21 11:34:48;;;;;;;3.87;1.87;;;17.70;57.80;;;;;;2547132;53;20953;-83
2023/02/21 11:37:15;;;;;;;5.78;2.20;;;17.80;58.10;;;;;;2546830;53;20911;-82
2023/02/21 11:39:41;;;;;;;6.00;2.15;;;18.00;57.90;;;;;;2546394;53;21003;-83
2023/02/21 11:45:40;;;;;;;4.07;2.30;;;18.10;57.80;;;;;;2309217;53;21815;-82
2023/02/21 11:48:10;;;;;;;4.03;1.80;;;18.40;57.10;;;;;;2309133;53;21401;-82
2023/02/21 11:50:39;;;;;;;3.95;1.90;;;18.50;57.70;;;;;;2546150;53;21374;-82
2023/02/21 11:54:57;;;;;;;4.00;2.08;;;18.60;57.40;;;;;;2309143;53;21019;-82
2023/02/21 11:57:52;;;;;;;11.65;4.90;;;18.70;56.30;;;;;;2309570;53;21491;-83
2023/02/21 12:01:08;;;;;;;9.32;4.95;;;18.80;55.90;;;;;;2546050;53;20966;-83
2023/02/21 12:03:57;;;;;;;5.85;3.10;;;18.90;56.60;;;;;;2309479;53;21007;-84
2023/02/21 12:09:04;;;;;;;5.95;2.90;;;19.00;56.00;;;;;;2546710;53;20984;-83
2023/02/21 12:13:40;;;;;;;4.15;1.80;;;19.20;55.60;;;;;;2545250;53;20970;-84
2023/02/21 12:16:45;;;;;;;3.53;1.50;;;19.20;55.00;;;;;;2309324;53;20940;-82
2023/02/21 12:21:05;;;;;;;5.87;1.92;;;19.30;54.70;;;;;;2542892;53;20948;-83
2023/02/21 12:26:49;;;;;;;2.90;1.40;;;19.30;54.90;;;;;;2309365;53;20934;-82
2023/02/21 12:30:58;;;;;;;5.25;1.65;;;19.40;55.40;;;;;;2308856;53;20991;-83
2023/02/21 12:36:38;;;;;;;3.87;1.67;;;19.40;54.60;;;;;;2537435;53;21014;-83
2023/02/21 12:39:31;;;;;;;5.87;2.25;;;19.50;54.60;;;;;;2545860;53;21008;-83
2023/02/21 12:42:46;;;;;;;;;;;19.70;54.70;;;;;;2549639;53;21002;-83
2023/02/21 12:45:58;;;;;;;4.35;1.55;;;19.70;54.80;;;;;;2308421;53;20772;-82
2023/02/21 12:48:41;;;;;;;3.75;1.60;;;19.80;54.40;;;;;;2546480;53;20971;-83
2023/02/21 12:51:10;;;;;;;6.22;1.60;;;19.80;54.80;;;;;;2545433;53;20974;-82
2023/02/21 12:53:44;;;;;;;4.80;1.73;;;19.80;55.10;;;;;;2309488;53;21287;-82
2023/02/21 12:56:29;;;;;;;3.42;1.73;;;19.90;54.80;;;;;;2546225;53;20935;-83
2023/02/21 12:59:16;;;;;;;3.28;1.50;;;19.90;54.50;;;;;;2546371;53;20943;-82
2023/02/21 13:02:00;;;;;;;3.40;1.70;;;19.90;53.60;;;;;;2546229;53;20953;-84
2023/02/21 13:04:49;;;;;;;4.65;1.42;;;20.00;53.70;;;;;;2546455;53;20942;-83
2023/02/21 13:07:36;;;;;;;3.30;1.58;;;20.00;53.30;;;;;;2545204;53;20911;-83
2023/02/21 13:11:57;;;;;;;4.20;1.50;;;20.10;53.10;;;;;;2545556;53;20955;-83
2023/02/21 13:14:27;;;;;;;5.50;2.30;;;20.10;53.10;;;;;;2546363;53;20951;-83
2023/02/21 13:16:54;;;;;;;3.80;1.67;;;20.20;54.30;;;;;;2546308;53;20930;-83
2023/02/21 13:19:20;;;;;;;4.78;1.55;;;20.20;54.20;;;;;;2308547;53;20935;-84
2023/02/21 13:25:20;;;;;;;3.12;1.37;;;20.30;53.90;;;;;;2546343;53;21015;-83
2023/02/21 13:27:59;;;;;;;3.28;1.20;;;20.40;53.00;;;;;;2546572;53;21413;-82
2023/02/21 13:30:42;;;;;;;3.22;1.33;;;20.40;52.90;;;;;;2308646;53;20963;-82
2023/02/21 13:33:22;;;;;;;5.40;2.03;;;20.40;52.60;;;;;;2545795;53;20970;-83
2023/02/21 13:35:50;;;;;;;3.42;1.48;;;20.50;52.40;;;;;;2546212;53;21616;-83
2023/02/21 13:38:17;;;;;;;3.92;1.60;;;20.50;53.40;;;;;;2508938;54;21520;-83
2023/02/21 13:41:08;;;;;;;2.60;1.30;;;20.50;53.20;;;;;;2545362;53;21022;-84
2023/02/21 13:43:35;;;;;;;3.40;1.40;;;20.60;52.20;;;;;;2309709;53;21416;-83
2023/02/21 13:47:04;;;;;;;2.72;1.30;;;20.60;52.80;;;;;;2546048;53;20947;-83
2023/02/21 13:49:50;;;;;;;2.72;1.23;;;20.70;51.60;;;;;;2308278;53;20995;-82
2023/02/21 13:52:27;;;;;;;6.32;1.58;;;20.70;52.10;;;;;;2545894;53;21002;-82
2023/02/21 14:01:41;;;;;;;2.58;1.25;;;20.70;52.10;;;;;;2307270;53;20955;-82
2023/02/21 14:04:47;;;;;;;2.45;0.80;;;20.80;51.90;;;;;;2545613;53;20939;-83
2023/02/21 14:07:14;;;;;;;2.40;0.95;;;20.80;51.30;;;;;;2545470;53;21047;-83
2023/02/21 14:09:40;;;;;;;2.78;1.00;;;20.90;52.10;;;;;;2545534;53;20987;-82
2023/02/21 14:12:07;;;;;;;2.58;1.10;;;20.80;51.70;;;;;;2308317;53;20946;-83
2023/02/21 14:14:38;;;;;;;3.35;1.37;;;20.70;51.60;;;;;;2545823;53;20955;-83
2023/02/21 14:17:09;;;;;;;3.73;1.13;;;20.70;51.10;;;;;;2545931;53;21125;-83
2023/02/21 14:19:44;;;;;;;2.15;0.90;;;20.70;51.00;;;;;;2545458;53;21102;-82
2023/02/21 14:22:32;;;;;;;2.20;1.00;;;20.70;50.70;;;;;;2308214;53;21047;-83
2023/02/21 14:25:06;;;;;;;5.62;1.17;;;20.80;50.30;;;;;;2545945;53;20938;-83
2023/02/21 14:27:35;;;;;;;2.55;1.12;;;20.80;50.70;;;;;;2308611;53;21062;-83
2023/02/21 14:30:15;;;;;;;3.83;1.15;;;20.80;51.00;;;;;;2308272;53;21054;-83
2023/02/21 14:32:45;;;;;;;3.28;1.40;;;20.80;50.20;;;;;;2545842;53;20994;-83
2023/02/21 14:35:39;;;;;;;2.42;1.00;;;20.80;50.70;;;;;;2307433;53;20998;-83
2023/02/21 14:38:15;;;;;;;2.15;1.02;;;20.80;49.60;;;;;;2545367;53;20995;-83
2023/02/21 14:41:35;;;;;;;4.43;1.12;;;20.80;49.90;;;;;;2545220;53;21105;-83
2023/02/21 14:44:29;;;;;;;2.60;0.93;;;20.70;49.70;;;;;;2308755;53;20947;-82
2023/02/21 14:53:04;;;;;;;2.78;1.00;;;20.80;49.60;;;;;;2545762;53;20939;-84
2023/02/21 14:56:57;;;;;;;3.72;0.77;;;20.70;49.50;;;;;;2545411;53;21002;-82
2023/02/21 15:00:01;;;;;;;3.35;0.90;;;20.70;49.10;;;;;;2547211;53;20923;-83
2023/02/21 15:02:45;;;;;;;1.75;0.50;;;20.60;48.70;;;;;;2546865;53;20982;-83
2023/02/21 15:06:17;;;;;;;1.83;0.68;;;20.70;49.60;;;;;;2546055;53;20943;-82
2023/02/21 15:08:47;;;;;;;1.48;0.60;;;20.60;48.40;;;;;;2546240;53;21460;-83
2023/02/21 15:11:39;;;;;;;2.20;0.73;;;20.60;49.10;;;;;;2545180;53;21011;-83
2023/02/21 15:15:12;;;;;;;1.83;0.70;;;20.60;48.20;;;;;;2308285;53;20926;-83
2023/02/21 15:17:38;;;;;;;1.33;0.57;;;20.50;47.90;;;;;;2545897;53;21015;-82
2023/02/21 15:20:15;;;;;;;2.33;0.65;;;20.50;48.90;;;;;;2307381;53;21086;-82
2023/02/21 15:22:42;;;;;;;1.58;0.70;;;20.50;48.00;;;;;;2545461;53;21918;-83
2023/02/21 15:25:19;;;;;;;2.25;0.93;;;20.50;48.70;;;;;;2545132;53;20994;-82
2023/02/21 15:28:04;;;;;;;3.47;1.05;;;20.40;48.20;;;;;;2545427;53;21030;-82
2023/02/21 15:30:33;;;;;;;2.85;1.00;;;20.40;48.00;;;;;;2544884;53;21350;-83
2023/02/21 15:33:18;;;;;;;2.97;1.00;;;20.40;48.60;;;;;;2545586;53;20935;-83
2023/02/21 15:35:53;;;;;;;1.95;0.75;;;20.40;48.30;;;;;;2545454;53;20959;-82
2023/02/21 15:39:28;;;;;;;2.03;0.85;;;20.40;48.00;;;;;;2545104;53;20966;-82
2023/02/21 15:41:58;;;;;;;2.08;0.60;;;20.40;47.80;;;;;;2307629;53;21019;-82
2023/02/21 15:44:40;;;;;;;2.08;0.70;;;20.30;48.20;;;;;;2546220;53;20975;-81
2023/02/21 15:47:12;;;;;;;2.08;0.70;;;20.30;47.40;;;;;;2545375;53;20938;-82
2023/02/21 15:49:43;;;;;;;;;;;20.30;47.80;;;;;;2548942;53;21423;-83
2023/02/21 15:52:25;;;;;;;2.87;0.77;;;20.20;47.50;;;;;;2544823;53;20072;-82
2023/02/21 15:55:15;;;;;;;3.10;0.70;;;20.20;47.40;;;;;;2307809;53;21358;-83
2023/02/21 15:57:42;;;;;;;2.53;0.90;;;20.20;47.40;;;;;;2545634;53;22030;-82
2023/02/21 16:01:10;;;;;;;3.20;0.82;;;20.10;48.10;;;;;;2545064;53;21007;-83
2023/02/21 16:03:43;;;;;;;1.65;0.68;;;20.10;47.40;;;;;;2307679;53;20947;-83
2023/02/21 16:06:24;;;;;;;1.87;0.80;;;20.00;47.90;;;;;;2307673;53;20931;-83
2023/02/21 16:09:05;;;;;;;3.58;1.20;;;20.00;47.80;;;;;;2545749;53;20944;-82
2023/02/21 16:11:53;;;;;;;2.97;1.67;;;20.00;48.40;;;;;;2307373;53;21031;-81
2023/02/21 16:15:28;;;;;;;3.10;1.30;;;19.90;47.80;;;;;;2307641;53;20967;-81
2023/02/21 16:18:00;;;;;;;4.22;1.33;;;19.90;47.50;;;;;;2545383;53;21003;-81
2023/02/21 16:20:45;;;;;;;4.62;1.60;;;19.80;48.00;;;;;;2544948;53;20959;-82
2023/02/21 16:23:23;;;;;;;4.85;2.15;;;19.70;47.80;;;;;;2307326;53;21007;-83
2023/02/21 16:26:26;;;;;;;7.85;3.33;;;19.60;47.80;;;;;;2545513;53;20978;-83
2023/02/21 16:28:57;;;;;;;5.78;3.33;;;19.60;47.20;;;;;;2307775;53;20907;-81
2023/02/21 16:31:28;;;;;;;5.70;2.92;;;19.40;47.70;;;;;;2544987;53;21548;-82
2023/02/21 16:33:54;;;;;;;4.90;2.00;;;19.40;47.70;;;;;;2307801;53;21030;-82
2023/02/21 16:36:28;;;;;;;4.68;2.15;;;19.30;47.70;;;;;;2545159;53;20955;-83
2023/02/21 16:38:55;;;;;;;3.90;2.10;;;19.20;47.40;;;;;;2307548;53;22189;-83
2023/02/21 16:41:21;;;;;;;4.40;2.47;;;19.10;47.70;;;;;;2307440;53;21002;-81
2023/02/21 16:43:47;;;;;;;4.25;2.50;;;19.00;47.60;;;;;;2545332;53;20982;-83
2023/02/21 16:46:14;;;;;;;4.53;2.62;;;18.90;47.50;;;;;;2545385;53;21014;-82
2023/02/21 16:48:40;;;;;;;4.85;2.22;;;18.80;47.50;;;;;;2545251;53;21003;-82
2023/02/21 16:51:12;;;;;;;4.47;2.47;;;18.70;47.50;;;;;;2545133;53;21713;-82
2023/02/21 16:53:38;;;;;;;5.18;2.55;;;18.60;47.40;;;;;;2307989;53;20998;-82
2023/02/21 16:56:05;;;;;;;5.87;2.30;;;18.50;47.40;;;;;;2545657;53;21003;-83